sensor_id;sensor_type;location;lat;lon;timestamp;P1;durP1;ratioP1;P2;durP2;ratioP2
13421;SDS011;6782;55.904;13.396;2022-11-18T00:02:32;1.87;;;1.20;;
13421;SDS011;6782;55.904;13.396;2022-11-18T00:05:19;2.23;;;1.10;;
13421;SDS011;6782;55.904;13.396;2022-11-18T00:08:06;1.27;;;1.03;;
13421;SDS011;6782;55.904;13.396;2022-11-18T00:10:54;1.00;;;1.00;;
13421;SDS011;6782;55.904;13.396;2022-11-18T00:13:41;1.40;;;1.10;;
13421;SDS011;6782;55.904;13.396;2022-11-18T00:16:45;1.33;;;1.10;;
13421;SDS011;6782;55.904;13.396;2022-11-18T00:19:35;0.90;;;0.90;;
13421;SDS011;6782;55.904;13.396;2022-11-18T00:22:24;1.40;;;1.30;;
13421;SDS011;6782;55.904;13.396;2022-11-18T00:25:11;1.27;;;1.17;;
13421;SDS011;6782;55.904;13.396;2022-11-18T00:27:58;1.23;;;1.20;;
13421;SDS011;6782;55.904;13.396;2022-11-18T00:30:45;1.20;;;1.10;;
13421;SDS011;6782;55.904;13.396;2022-11-18T00:33:32;1.03;;;1.00;;
13421;SDS011;6782;55.904;13.396;2022-11-18T00:36:22;1.50;;;1.20;;
13421;SDS011;6782;55.904;13.396;2022-11-18T00:39:10;1.33;;;1.20;;
13421;SDS011;6782;55.904;13.396;2022-11-18T00:41:57;1.37;;;1.27;;
13421;SDS011;6782;55.904;13.396;2022-11-18T00:45:02;1.87;;;1.10;;
13421;SDS011;6782;55.904;13.396;2022-11-18T00:47:49;1.30;;;1.20;;
13421;SDS011;6782;55.904;13.396;2022-11-18T00:50:36;1.40;;;1.30;;
13421;SDS011;6782;55.904;13.396;2022-11-18T00:53:25;1.00;;;1.00;;
13421;SDS011;6782;55.904;13.396;2022-11-18T00:56:12;1.10;;;1.10;;
13421;SDS011;6782;55.904;13.396;2022-11-18T00:58:59;1.43;;;1.33;;
13421;SDS011;6782;55.904;13.396;2022-11-18T01:01:46;1.83;;;1.10;;
13421;SDS011;6782;55.904;13.396;2022-11-18T01:04:34;1.17;;;1.10;;
13421;SDS011;6782;55.904;13.396;2022-11-18T01:07:21;2.23;;;1.33;;
13421;SDS011;6782;55.904;13.396;2022-11-18T01:10:10;1.50;;;1.40;;
13421;SDS011;6782;55.904;13.396;2022-11-18T01:12:57;1.53;;;1.10;;
13421;SDS011;6782;55.904;13.396;2022-11-18T01:16:01;1.43;;;1.17;;
13421;SDS011;6782;55.904;13.396;2022-11-18T01:18:48;1.37;;;1.20;;
13421;SDS011;6782;55.904;13.396;2022-11-18T01:21:36;1.20;;;1.10;;
13421;SDS011;6782;55.904;13.396;2022-11-18T01:24:23;1.20;;;1.10;;
13421;SDS011;6782;55.904;13.396;2022-11-18T01:27:11;1.27;;;1.17;;
13421;SDS011;6782;55.904;13.396;2022-11-18T01:29:58;1.27;;;1.17;;
13421;SDS011;6782;55.904;13.396;2022-11-18T01:32:45;1.13;;;1.03;;
13421;SDS011;6782;55.904;13.396;2022-11-18T01:35:33;1.20;;;1.10;;
13421;SDS011;6782;55.904;13.396;2022-11-18T01:38:20;1.20;;;1.10;;
13421;SDS011;6782;55.904;13.396;2022-11-18T01:41:08;2.23;;;1.40;;
13421;SDS011;6782;55.904;13.396;2022-11-18T01:43:56;1.30;;;1.20;;
13421;SDS011;6782;55.904;13.396;2022-11-18T01:46:45;1.30;;;1.20;;
13421;SDS011;6782;55.904;13.396;2022-11-18T01:49:32;1.23;;;1.13;;
13421;SDS011;6782;55.904;13.396;2022-11-18T01:52:19;1.23;;;1.13;;
13421;SDS011;6782;55.904;13.396;2022-11-18T01:55:09;1.57;;;1.20;;
13421;SDS011;6782;55.904;13.396;2022-11-18T01:58:00;1.33;;;1.20;;
13421;SDS011;6782;55.904;13.396;2022-11-18T02:00:53;1.30;;;1.20;;
13421;SDS011;6782;55.904;13.396;2022-11-18T02:03:40;1.20;;;1.10;;
13421;SDS011;6782;55.904;13.396;2022-11-18T02:06:28;1.47;;;1.30;;
13421;SDS011;6782;55.904;13.396;2022-11-18T02:09:15;1.30;;;1.20;;
13421;SDS011;6782;55.904;13.396;2022-11-18T02:12:03;1.30;;;1.20;;
13421;SDS011;6782;55.904;13.396;2022-11-18T02:14:51;1.50;;;1.40;;
13421;SDS011;6782;55.904;13.396;2022-11-18T02:17:43;1.37;;;1.27;;
13421;SDS011;6782;55.904;13.396;2022-11-18T02:20:38;1.37;;;1.27;;
13421;SDS011;6782;55.904;13.396;2022-11-18T02:23:48;1.20;;;1.10;;
13421;SDS011;6782;55.904;13.396;2022-11-18T02:27:29;1.47;;;1.27;;
13421;SDS011;6782;55.904;13.396;2022-11-18T02:30:42;2.03;;;1.20;;
13421;SDS011;6782;55.904;13.396;2022-11-18T02:33:35;1.00;;;1.00;;
13421;SDS011;6782;55.904;13.396;2022-11-18T02:36:30;1.00;;;1.00;;
13421;SDS011;6782;55.904;13.396;2022-11-18T02:39:28;1.20;;;1.10;;
13421;SDS011;6782;55.904;13.396;2022-11-18T02:42:20;1.20;;;1.10;;
13421;SDS011;6782;55.904;13.396;2022-11-18T02:45:10;1.13;;;1.03;;
13421;SDS011;6782;55.904;13.396;2022-11-18T02:48:02;1.80;;;1.20;;
13421;SDS011;6782;55.904;13.396;2022-11-18T02:50:53;1.00;;;1.00;;
13421;SDS011;6782;55.904;13.396;2022-11-18T02:53:41;1.97;;;1.13;;
13421;SDS011;6782;55.904;13.396;2022-11-18T02:56:31;1.10;;;1.10;;
13421;SDS011;6782;55.904;13.396;2022-11-18T02:59:20;1.20;;;1.10;;
13421;SDS011;6782;55.904;13.396;2022-11-18T03:02:08;1.33;;;1.23;;
13421;SDS011;6782;55.904;13.396;2022-11-18T03:05:03;1.80;;;1.40;;
13421;SDS011;6782;55.904;13.396;2022-11-18T03:07:55;1.30;;;1.20;;
13421;SDS011;6782;55.904;13.396;2022-11-18T03:10:48;2.50;;;1.37;;
13421;SDS011;6782;55.904;13.396;2022-11-18T03:13:49;1.13;;;1.03;;
13421;SDS011;6782;55.904;13.396;2022-11-18T03:16:55;1.27;;;1.17;;
13421;SDS011;6782;55.904;13.396;2022-11-18T03:19:50;1.07;;;1.00;;
13421;SDS011;6782;55.904;13.396;2022-11-18T03:22:51;1.10;;;0.77;;
13421;SDS011;6782;55.904;13.396;2022-11-18T03:25:43;0.83;;;0.80;;
13421;SDS011;6782;55.904;13.396;2022-11-18T03:28:35;1.37;;;0.87;;
13421;SDS011;6782;55.904;13.396;2022-11-18T03:31:29;1.53;;;0.80;;
13421;SDS011;6782;55.904;13.396;2022-11-18T03:34:24;0.90;;;0.90;;
13421;SDS011;6782;55.904;13.396;2022-11-18T03:37:16;0.93;;;0.93;;
13421;SDS011;6782;55.904;13.396;2022-11-18T03:40:08;1.37;;;1.10;;
13421;SDS011;6782;55.904;13.396;2022-11-18T03:43:01;1.93;;;1.17;;
13421;SDS011;6782;55.904;13.396;2022-11-18T03:45:53;2.03;;;1.10;;
13421;SDS011;6782;55.904;13.396;2022-11-18T03:48:46;1.03;;;0.90;;
13421;SDS011;6782;55.904;13.396;2022-11-18T03:51:38;0.80;;;0.80;;
13421;SDS011;6782;55.904;13.396;2022-11-18T03:54:29;1.60;;;1.00;;
13421;SDS011;6782;55.904;13.396;2022-11-18T03:57:22;1.90;;;0.90;;
13421;SDS011;6782;55.904;13.396;2022-11-18T04:00:16;1.00;;;0.90;;
13421;SDS011;6782;55.904;13.396;2022-11-18T04:03:04;1.00;;;1.00;;
13421;SDS011;6782;55.904;13.396;2022-11-18T04:05:52;0.77;;;0.73;;
13421;SDS011;6782;55.904;13.396;2022-11-18T04:08:46;3.07;;;0.90;;
13421;SDS011;6782;55.904;13.396;2022-11-18T04:11:41;2.50;;;0.90;;
13421;SDS011;6782;55.904;13.396;2022-11-18T04:14:52;1.07;;;0.80;;
13421;SDS011;6782;55.904;13.396;2022-11-18T04:17:40;0.90;;;0.90;;
13421;SDS011;6782;55.904;13.396;2022-11-18T04:20:28;0.90;;;0.90;;
13421;SDS011;6782;55.904;13.396;2022-11-18T04:23:17;0.97;;;0.90;;
13421;SDS011;6782;55.904;13.396;2022-11-18T04:26:05;0.97;;;0.97;;
13421;SDS011;6782;55.904;13.396;2022-11-18T04:28:52;2.87;;;1.10;;
13421;SDS011;6782;55.904;13.396;2022-11-18T04:31:41;3.03;;;1.03;;
13421;SDS011;6782;55.904;13.396;2022-11-18T04:34:28;1.53;;;1.03;;
13421;SDS011;6782;55.904;13.396;2022-11-18T04:37:16;1.40;;;1.30;;
13421;SDS011;6782;55.904;13.396;2022-11-18T04:40:03;1.10;;;1.00;;
13421;SDS011;6782;55.904;13.396;2022-11-18T04:42:51;1.27;;;1.03;;
13421;SDS011;6782;55.904;13.396;2022-11-18T04:45:38;1.50;;;1.30;;
13421;SDS011;6782;55.904;13.396;2022-11-18T04:48:27;1.43;;;1.20;;
13421;SDS011;6782;55.904;13.396;2022-11-18T04:51:14;1.20;;;1.10;;
13421;SDS011;6782;55.904;13.396;2022-11-18T04:54:01;1.63;;;1.33;;
13421;SDS011;6782;55.904;13.396;2022-11-18T04:56:49;1.30;;;1.20;;
13421;SDS011;6782;55.904;13.396;2022-11-18T04:59:37;2.30;;;1.30;;
13421;SDS011;6782;55.904;13.396;2022-11-18T05:02:24;1.30;;;1.20;;
13421;SDS011;6782;55.904;13.396;2022-11-18T05:05:13;1.80;;;1.40;;
13421;SDS011;6782;55.904;13.396;2022-11-18T05:08:00;1.40;;;1.30;;
13421;SDS011;6782;55.904;13.396;2022-11-18T05:10:47;1.67;;;1.40;;
13421;SDS011;6782;55.904;13.396;2022-11-18T05:13:34;1.73;;;1.50;;
13421;SDS011;6782;55.904;13.396;2022-11-18T05:16:21;1.53;;;1.43;;
13421;SDS011;6782;55.904;13.396;2022-11-18T05:19:08;3.20;;;1.70;;
13421;SDS011;6782;55.904;13.396;2022-11-18T05:21:56;2.33;;;1.50;;
13421;SDS011;6782;55.904;13.396;2022-11-18T05:24:44;1.40;;;1.30;;
13421;SDS011;6782;55.904;13.396;2022-11-18T05:27:31;1.50;;;1.40;;
13421;SDS011;6782;55.904;13.396;2022-11-18T05:30:19;1.30;;;1.20;;
13421;SDS011;6782;55.904;13.396;2022-11-18T05:33:06;2.67;;;1.37;;
13421;SDS011;6782;55.904;13.396;2022-11-18T05:35:53;2.50;;;1.77;;
13421;SDS011;6782;55.904;13.396;2022-11-18T05:38:42;2.87;;;2.60;;
13421;SDS011;6782;55.904;13.396;2022-11-18T05:41:30;1.70;;;1.60;;
13421;SDS011;6782;55.904;13.396;2022-11-18T05:44:34;1.63;;;1.20;;
13421;SDS011;6782;55.904;13.396;2022-11-18T05:47:22;1.63;;;1.20;;
13421;SDS011;6782;55.904;13.396;2022-11-18T05:50:10;2.50;;;1.77;;
13421;SDS011;6782;55.904;13.396;2022-11-18T05:52:57;1.60;;;1.50;;
13421;SDS011;6782;55.904;13.396;2022-11-18T05:55:50;2.10;;;1.40;;
13421;SDS011;6782;55.904;13.396;2022-11-18T05:58:42;2.13;;;1.50;;
13421;SDS011;6782;55.904;13.396;2022-11-18T06:01:31;8.73;;;5.63;;
13421;SDS011;6782;55.904;13.396;2022-11-18T06:04:23;2.43;;;2.13;;
13421;SDS011;6782;55.904;13.396;2022-11-18T06:07:13;2.33;;;2.00;;
13421;SDS011;6782;55.904;13.396;2022-11-18T06:10:06;5.53;;;4.47;;
13421;SDS011;6782;55.904;13.396;2022-11-18T06:12:57;14.60;;;9.37;;
13421;SDS011;6782;55.904;13.396;2022-11-18T06:15:50;6.03;;;5.17;;
13421;SDS011;6782;55.904;13.396;2022-11-18T06:18:38;6.03;;;4.07;;
13421;SDS011;6782;55.904;13.396;2022-11-18T06:21:27;3.67;;;2.50;;
13421;SDS011;6782;55.904;13.396;2022-11-18T06:24:14;3.40;;;2.30;;
13421;SDS011;6782;55.904;13.396;2022-11-18T06:27:03;10.03;;;8.33;;
13421;SDS011;6782;55.904;13.396;2022-11-18T06:29:52;4.43;;;3.97;;
13421;SDS011;6782;55.904;13.396;2022-11-18T06:32:39;3.70;;;3.27;;
13421;SDS011;6782;55.904;13.396;2022-11-18T06:35:27;4.50;;;3.00;;
13421;SDS011;6782;55.904;13.396;2022-11-18T06:38:14;2.67;;;1.40;;
13421;SDS011;6782;55.904;13.396;2022-11-18T06:41:02;1.90;;;1.60;;
13421;SDS011;6782;55.904;13.396;2022-11-18T06:43:50;3.37;;;3.07;;
13421;SDS011;6782;55.904;13.396;2022-11-18T06:46:38;5.23;;;2.90;;
13421;SDS011;6782;55.904;13.396;2022-11-18T06:49:44;2.97;;;2.47;;
13421;SDS011;6782;55.904;13.396;2022-11-18T06:52:31;2.27;;;1.37;;
13421;SDS011;6782;55.904;13.396;2022-11-18T06:55:18;2.43;;;1.90;;
13421;SDS011;6782;55.904;13.396;2022-11-18T06:58:06;1.77;;;1.67;;
13421;SDS011;6782;55.904;13.396;2022-11-18T07:00:53;2.07;;;1.83;;
13421;SDS011;6782;55.904;13.396;2022-11-18T07:03:42;2.63;;;1.67;;
13421;SDS011;6782;55.904;13.396;2022-11-18T07:06:31;1.67;;;1.57;;
13421;SDS011;6782;55.904;13.396;2022-11-18T07:09:19;2.70;;;1.50;;
13421;SDS011;6782;55.904;13.396;2022-11-18T07:12:06;1.50;;;1.40;;
13421;SDS011;6782;55.904;13.396;2022-11-18T07:14:53;1.80;;;1.30;;
13421;SDS011;6782;55.904;13.396;2022-11-18T07:17:40;2.80;;;1.63;;
13421;SDS011;6782;55.904;13.396;2022-11-18T07:20:29;1.30;;;1.20;;
13421;SDS011;6782;55.904;13.396;2022-11-18T07:23:16;2.87;;;1.03;;
13421;SDS011;6782;55.904;13.396;2022-11-18T07:26:04;2.77;;;1.00;;
13421;SDS011;6782;55.904;13.396;2022-11-18T07:28:52;1.70;;;1.23;;
13421;SDS011;6782;55.904;13.396;2022-11-18T07:31:39;1.57;;;1.00;;
13421;SDS011;6782;55.904;13.396;2022-11-18T07:34:26;1.00;;;1.00;;
13421;SDS011;6782;55.904;13.396;2022-11-18T07:37:15;1.10;;;1.00;;
13421;SDS011;6782;55.904;13.396;2022-11-18T07:40:03;1.97;;;1.03;;
13421;SDS011;6782;55.904;13.396;2022-11-18T07:42:50;1.00;;;0.90;;
13421;SDS011;6782;55.904;13.396;2022-11-18T07:45:39;1.10;;;1.00;;
13421;SDS011;6782;55.904;13.396;2022-11-18T07:48:26;1.40;;;1.17;;
13421;SDS011;6782;55.904;13.396;2022-11-18T07:51:14;1.10;;;1.00;;
13421;SDS011;6782;55.904;13.396;2022-11-18T07:54:05;1.10;;;1.00;;
13421;SDS011;6782;55.904;13.396;2022-11-18T07:56:53;4.03;;;1.10;;
13421;SDS011;6782;55.904;13.396;2022-11-18T07:59:40;1.10;;;1.00;;
13421;SDS011;6782;55.904;13.396;2022-11-18T08:02:27;1.50;;;1.13;;
13421;SDS011;6782;55.904;13.396;2022-11-18T08:05:15;2.10;;;1.07;;
13421;SDS011;6782;55.904;13.396;2022-11-18T08:08:02;3.13;;;1.20;;
13421;SDS011;6782;55.904;13.396;2022-11-18T08:10:51;1.70;;;1.30;;
13421;SDS011;6782;55.904;13.396;2022-11-18T08:13:41;3.37;;;1.30;;
13421;SDS011;6782;55.904;13.396;2022-11-18T08:16:30;2.30;;;1.00;;
13421;SDS011;6782;55.904;13.396;2022-11-18T08:19:17;1.80;;;1.30;;
13421;SDS011;6782;55.904;13.396;2022-11-18T08:22:04;2.43;;;1.10;;
13421;SDS011;6782;55.904;13.396;2022-11-18T08:24:51;1.77;;;1.07;;
13421;SDS011;6782;55.904;13.396;2022-11-18T08:27:40;1.57;;;1.07;;
13421;SDS011;6782;55.904;13.396;2022-11-18T08:30:27;1.37;;;1.07;;
13421;SDS011;6782;55.904;13.396;2022-11-18T08:33:14;2.07;;;1.10;;
13421;SDS011;6782;55.904;13.396;2022-11-18T08:36:04;2.73;;;1.10;;
13421;SDS011;6782;55.904;13.396;2022-11-18T08:38:53;1.73;;;1.20;;
13421;SDS011;6782;55.904;13.396;2022-11-18T08:41:42;1.50;;;1.20;;
13421;SDS011;6782;55.904;13.396;2022-11-18T08:44:32;3.33;;;1.67;;
13421;SDS011;6782;55.904;13.396;2022-11-18T08:47:20;2.33;;;1.47;;
13421;SDS011;6782;55.904;13.396;2022-11-18T08:50:08;2.20;;;1.40;;
13421;SDS011;6782;55.904;13.396;2022-11-18T08:52:57;2.33;;;1.00;;
13421;SDS011;6782;55.904;13.396;2022-11-18T08:55:44;2.20;;;1.13;;
13421;SDS011;6782;55.904;13.396;2022-11-18T08:58:33;0.80;;;0.80;;
13421;SDS011;6782;55.904;13.396;2022-11-18T09:01:21;1.73;;;1.00;;
13421;SDS011;6782;55.904;13.396;2022-11-18T09:04:09;2.47;;;1.30;;
13421;SDS011;6782;55.904;13.396;2022-11-18T09:06:56;2.23;;;1.13;;
13421;SDS011;6782;55.904;13.396;2022-11-18T09:09:43;1.80;;;1.20;;
13421;SDS011;6782;55.904;13.396;2022-11-18T09:12:30;1.07;;;1.00;;
13421;SDS011;6782;55.904;13.396;2022-11-18T09:15:17;1.33;;;1.00;;
13421;SDS011;6782;55.904;13.396;2022-11-18T09:18:07;1.67;;;1.10;;
13421;SDS011;6782;55.904;13.396;2022-11-18T09:20:54;1.20;;;0.90;;
13421;SDS011;6782;55.904;13.396;2022-11-18T09:23:42;1.20;;;1.00;;
13421;SDS011;6782;55.904;13.396;2022-11-18T09:26:29;0.93;;;0.90;;
13421;SDS011;6782;55.904;13.396;2022-11-18T09:29:16;2.67;;;1.13;;
13421;SDS011;6782;55.904;13.396;2022-11-18T09:32:04;1.10;;;1.00;;
13421;SDS011;6782;55.904;13.396;2022-11-18T09:34:53;2.37;;;1.00;;
13421;SDS011;6782;55.904;13.396;2022-11-18T09:37:40;2.30;;;1.07;;
13421;SDS011;6782;55.904;13.396;2022-11-18T09:40:27;1.20;;;1.10;;
13421;SDS011;6782;55.904;13.396;2022-11-18T09:43:16;1.60;;;1.30;;
13421;SDS011;6782;55.904;13.396;2022-11-18T09:46:12;1.57;;;1.10;;
13421;SDS011;6782;55.904;13.396;2022-11-18T09:49:08;2.03;;;1.07;;
13421;SDS011;6782;55.904;13.396;2022-11-18T09:52:02;1.43;;;1.10;;
13421;SDS011;6782;55.904;13.396;2022-11-18T09:54:51;2.60;;;1.10;;
13421;SDS011;6782;55.904;13.396;2022-11-18T09:57:38;1.40;;;1.30;;
13421;SDS011;6782;55.904;13.396;2022-11-18T10:00:30;1.83;;;1.00;;
13421;SDS011;6782;55.904;13.396;2022-11-18T10:03:20;2.33;;;1.30;;
13421;SDS011;6782;55.904;13.396;2022-11-18T10:06:14;1.83;;;1.20;;
13421;SDS011;6782;55.904;13.396;2022-11-18T10:09:21;1.57;;;1.00;;
13421;SDS011;6782;55.904;13.396;2022-11-18T10:12:17;1.20;;;1.10;;
13421;SDS011;6782;55.904;13.396;2022-11-18T10:15:16;1.47;;;1.00;;
13421;SDS011;6782;55.904;13.396;2022-11-18T10:18:13;1.03;;;0.93;;
13421;SDS011;6782;55.904;13.396;2022-11-18T10:21:11;1.83;;;1.20;;
13421;SDS011;6782;55.904;13.396;2022-11-18T10:24:07;0.90;;;0.90;;
13421;SDS011;6782;55.904;13.396;2022-11-18T10:27:00;1.07;;;0.80;;
13421;SDS011;6782;55.904;13.396;2022-11-18T10:29:50;1.03;;;0.93;;
13421;SDS011;6782;55.904;13.396;2022-11-18T10:32:57;1.03;;;0.80;;
13421;SDS011;6782;55.904;13.396;2022-11-18T10:35:45;2.40;;;1.10;;
13421;SDS011;6782;55.904;13.396;2022-11-18T10:38:32;1.73;;;0.90;;
13421;SDS011;6782;55.904;13.396;2022-11-18T10:41:19;0.80;;;0.80;;
13421;SDS011;6782;55.904;13.396;2022-11-18T10:44:24;0.70;;;0.70;;
13421;SDS011;6782;55.904;13.396;2022-11-18T10:47:18;1.67;;;0.77;;
13421;SDS011;6782;55.904;13.396;2022-11-18T10:53:27;1.47;;;1.00;;
13421;SDS011;6782;55.904;13.396;2022-11-18T10:56:16;0.90;;;0.70;;
13421;SDS011;6782;55.904;13.396;2022-11-18T10:59:04;1.33;;;0.70;;
13421;SDS011;6782;55.904;13.396;2022-11-18T11:02:00;1.63;;;0.90;;
13421;SDS011;6782;55.904;13.396;2022-11-18T11:04:58;0.80;;;0.80;;
13421;SDS011;6782;55.904;13.396;2022-11-18T11:07:51;1.30;;;0.80;;
13421;SDS011;6782;55.904;13.396;2022-11-18T11:10:52;1.57;;;0.87;;
13421;SDS011;6782;55.904;13.396;2022-11-18T11:13:40;1.17;;;0.80;;
13421;SDS011;6782;55.904;13.396;2022-11-18T11:16:30;0.87;;;0.80;;
13421;SDS011;6782;55.904;13.396;2022-11-18T11:19:24;0.77;;;0.77;;
13421;SDS011;6782;55.904;13.396;2022-11-18T11:22:17;1.37;;;0.93;;
13421;SDS011;6782;55.904;13.396;2022-11-18T11:25:10;0.80;;;0.60;;
13421;SDS011;6782;55.904;13.396;2022-11-18T11:28:06;1.93;;;1.00;;
13421;SDS011;6782;55.904;13.396;2022-11-18T11:31:05;0.70;;;0.70;;
13421;SDS011;6782;55.904;13.396;2022-11-18T11:34:01;2.93;;;0.97;;
13421;SDS011;6782;55.904;13.396;2022-11-18T11:37:00;1.10;;;0.70;;
13421;SDS011;6782;55.904;13.396;2022-11-18T11:39:55;1.03;;;1.00;;
13421;SDS011;6782;55.904;13.396;2022-11-18T11:43:13;0.77;;;0.53;;
13421;SDS011;6782;55.904;13.396;2022-11-18T11:46:18;0.90;;;0.63;;
13421;SDS011;6782;55.904;13.396;2022-11-18T11:49:15;1.67;;;0.70;;
13421;SDS011;6782;55.904;13.396;2022-11-18T11:52:07;1.03;;;0.80;;
13421;SDS011;6782;55.904;13.396;2022-11-18T11:55:04;1.07;;;0.97;;
13421;SDS011;6782;55.904;13.396;2022-11-18T11:58:08;1.20;;;0.80;;
13421;SDS011;6782;55.904;13.396;2022-11-18T12:01:07;0.80;;;0.80;;
13421;SDS011;6782;55.904;13.396;2022-11-18T12:04:07;1.27;;;0.90;;
13421;SDS011;6782;55.904;13.396;2022-11-18T12:07:14;1.63;;;0.93;;
13421;SDS011;6782;55.904;13.396;2022-11-18T12:10:07;1.53;;;1.00;;
13421;SDS011;6782;55.904;13.396;2022-11-18T12:13:24;1.17;;;1.00;;
13421;SDS011;6782;55.904;13.396;2022-11-18T12:16:23;0.80;;;0.80;;
13421;SDS011;6782;55.904;13.396;2022-11-18T12:19:14;0.93;;;0.67;;
13421;SDS011;6782;55.904;13.396;2022-11-18T12:22:03;3.47;;;0.90;;
13421;SDS011;6782;55.904;13.396;2022-11-18T12:24:52;1.03;;;0.80;;
13421;SDS011;6782;55.904;13.396;2022-11-18T12:27:55;0.93;;;0.77;;
13421;SDS011;6782;55.904;13.396;2022-11-18T12:30:44;1.43;;;0.73;;
13421;SDS011;6782;55.904;13.396;2022-11-18T12:33:31;0.87;;;0.70;;
13421;SDS011;6782;55.904;13.396;2022-11-18T12:36:23;0.80;;;0.80;;
13421;SDS011;6782;55.904;13.396;2022-11-18T12:42:42;0.70;;;0.70;;
13421;SDS011;6782;55.904;13.396;2022-11-18T12:45:52;0.70;;;0.70;;
13421;SDS011;6782;55.904;13.396;2022-11-18T12:48:41;1.57;;;1.00;;
13421;SDS011;6782;55.904;13.396;2022-11-18T12:54:35;1.87;;;1.30;;
13421;SDS011;6782;55.904;13.396;2022-11-18T12:57:27;1.67;;;1.30;;
13421;SDS011;6782;55.904;13.396;2022-11-18T13:00:26;2.00;;;1.47;;
13421;SDS011;6782;55.904;13.396;2022-11-18T13:03:36;1.27;;;1.17;;
13421;SDS011;6782;55.904;13.396;2022-11-18T13:06:24;1.33;;;1.20;;
13421;SDS011;6782;55.904;13.396;2022-11-18T13:09:14;1.13;;;1.03;;
13421;SDS011;6782;55.904;13.396;2022-11-18T13:12:04;1.93;;;1.20;;
13421;SDS011;6782;55.904;13.396;2022-11-18T13:15:00;2.40;;;1.50;;
13421;SDS011;6782;55.904;13.396;2022-11-18T13:18:09;1.27;;;1.17;;
13421;SDS011;6782;55.904;13.396;2022-11-18T13:20:59;1.27;;;1.17;;
13421;SDS011;6782;55.904;13.396;2022-11-18T13:24:10;1.30;;;1.20;;
13421;SDS011;6782;55.904;13.396;2022-11-18T13:26:57;1.10;;;1.10;;
13421;SDS011;6782;55.904;13.396;2022-11-18T13:29:45;1.20;;;1.03;;
13421;SDS011;6782;55.904;13.396;2022-11-18T13:32:41;2.43;;;1.10;;
13421;SDS011;6782;55.904;13.396;2022-11-18T13:35:31;1.33;;;1.10;;
13421;SDS011;6782;55.904;13.396;2022-11-18T13:38:19;1.77;;;1.47;;
13421;SDS011;6782;55.904;13.396;2022-11-18T13:41:13;3.30;;;1.30;;
13421;SDS011;6782;55.904;13.396;2022-11-18T13:44:11;1.50;;;1.40;;
13421;SDS011;6782;55.904;13.396;2022-11-18T13:47:05;1.37;;;1.27;;
13421;SDS011;6782;55.904;13.396;2022-11-18T13:50:12;1.33;;;1.07;;
13421;SDS011;6782;55.904;13.396;2022-11-18T13:53:08;1.33;;;1.10;;
13421;SDS011;6782;55.904;13.396;2022-11-18T13:56:13;1.47;;;1.30;;
13421;SDS011;6782;55.904;13.396;2022-11-18T13:59:04;1.30;;;1.20;;
13421;SDS011;6782;55.904;13.396;2022-11-18T14:01:53;2.23;;;1.20;;
13421;SDS011;6782;55.904;13.396;2022-11-18T14:04:46;1.30;;;1.20;;
13421;SDS011;6782;55.904;13.396;2022-11-18T14:07:37;2.53;;;1.20;;
13421;SDS011;6782;55.904;13.396;2022-11-18T14:10:30;3.63;;;1.20;;
13421;SDS011;6782;55.904;13.396;2022-11-18T14:13:21;1.40;;;1.30;;
13421;SDS011;6782;55.904;13.396;2022-11-18T14:16:28;2.23;;;1.53;;
13421;SDS011;6782;55.904;13.396;2022-11-18T14:19:25;2.20;;;1.10;;
13421;SDS011;6782;55.904;13.396;2022-11-18T14:22:15;1.33;;;1.20;;
13421;SDS011;6782;55.904;13.396;2022-11-18T14:25:14;1.40;;;1.30;;
13421;SDS011;6782;55.904;13.396;2022-11-18T14:28:17;1.83;;;1.17;;
13421;SDS011;6782;55.904;13.396;2022-11-18T14:31:20;1.60;;;1.50;;
13421;SDS011;6782;55.904;13.396;2022-11-18T14:34:16;1.30;;;1.20;;
13421;SDS011;6782;55.904;13.396;2022-11-18T14:37:08;1.10;;;1.10;;
13421;SDS011;6782;55.904;13.396;2022-11-18T14:39:57;1.47;;;1.37;;
13421;SDS011;6782;55.904;13.396;2022-11-18T14:42:45;1.83;;;1.07;;
13421;SDS011;6782;55.904;13.396;2022-11-18T14:45:33;1.40;;;1.30;;
13421;SDS011;6782;55.904;13.396;2022-11-18T14:48:21;1.20;;;1.10;;
13421;SDS011;6782;55.904;13.396;2022-11-18T14:51:10;1.13;;;1.13;;
13421;SDS011;6782;55.904;13.396;2022-11-18T14:53:59;2.07;;;1.30;;
13421;SDS011;6782;55.904;13.396;2022-11-18T14:56:46;1.23;;;1.10;;
13421;SDS011;6782;55.904;13.396;2022-11-18T14:59:35;2.17;;;1.30;;
13421;SDS011;6782;55.904;13.396;2022-11-18T15:02:23;1.40;;;1.30;;
13421;SDS011;6782;55.904;13.396;2022-11-18T15:05:11;1.27;;;1.17;;
13421;SDS011;6782;55.904;13.396;2022-11-18T15:07:58;1.57;;;1.00;;
13421;SDS011;6782;55.904;13.396;2022-11-18T15:10:45;1.73;;;1.10;;
13421;SDS011;6782;55.904;13.396;2022-11-18T15:13:32;1.43;;;1.20;;
13421;SDS011;6782;55.904;13.396;2022-11-18T15:16:19;2.47;;;1.30;;
13421;SDS011;6782;55.904;13.396;2022-11-18T15:19:11;1.30;;;1.20;;
13421;SDS011;6782;55.904;13.396;2022-11-18T15:22:00;1.37;;;1.27;;
13421;SDS011;6782;55.904;13.396;2022-11-18T15:24:47;3.17;;;2.53;;
13421;SDS011;6782;55.904;13.396;2022-11-18T15:27:34;3.83;;;2.20;;
13421;SDS011;6782;55.904;13.396;2022-11-18T15:30:22;2.53;;;1.93;;
13421;SDS011;6782;55.904;13.396;2022-11-18T15:33:09;2.10;;;1.90;;
13421;SDS011;6782;55.904;13.396;2022-11-18T15:35:57;2.80;;;2.53;;
13421;SDS011;6782;55.904;13.396;2022-11-18T15:38:44;4.47;;;3.97;;
13421;SDS011;6782;55.904;13.396;2022-11-18T15:41:32;3.77;;;2.50;;
13421;SDS011;6782;55.904;13.396;2022-11-18T15:44:19;8.13;;;6.47;;
13421;SDS011;6782;55.904;13.396;2022-11-18T15:47:06;6.93;;;5.10;;
13421;SDS011;6782;55.904;13.396;2022-11-18T15:49:53;17.00;;;11.03;;
13421;SDS011;6782;55.904;13.396;2022-11-18T15:52:41;3.50;;;2.80;;
13421;SDS011;6782;55.904;13.396;2022-11-18T15:55:28;1.83;;;1.73;;
13421;SDS011;6782;55.904;13.396;2022-11-18T15:58:15;3.17;;;2.13;;
13421;SDS011;6782;55.904;13.396;2022-11-18T16:01:02;2.20;;;2.10;;
13421;SDS011;6782;55.904;13.396;2022-11-18T16:03:50;2.00;;;1.90;;
13421;SDS011;6782;55.904;13.396;2022-11-18T16:06:37;1.83;;;1.20;;
13421;SDS011;6782;55.904;13.396;2022-11-18T16:09:26;1.77;;;1.67;;
13421;SDS011;6782;55.904;13.396;2022-11-18T16:12:33;1.60;;;1.30;;
13421;SDS011;6782;55.904;13.396;2022-11-18T16:15:32;2.40;;;1.50;;
13421;SDS011;6782;55.904;13.396;2022-11-18T16:18:32;1.80;;;1.30;;
13421;SDS011;6782;55.904;13.396;2022-11-18T16:21:19;1.33;;;1.23;;
13421;SDS011;6782;55.904;13.396;2022-11-18T16:24:07;1.30;;;1.20;;
13421;SDS011;6782;55.904;13.396;2022-11-18T16:26:58;1.90;;;1.20;;
13421;SDS011;6782;55.904;13.396;2022-11-18T16:29:45;1.40;;;1.20;;
13421;SDS011;6782;55.904;13.396;2022-11-18T16:32:32;1.63;;;1.20;;
13421;SDS011;6782;55.904;13.396;2022-11-18T16:35:20;1.70;;;1.30;;
13421;SDS011;6782;55.904;13.396;2022-11-18T16:38:07;9.87;;;5.30;;
13421;SDS011;6782;55.904;13.396;2022-11-18T16:40:54;8.00;;;4.50;;
13421;SDS011;6782;55.904;13.396;2022-11-18T16:43:43;14.47;;;8.97;;
13421;SDS011;6782;55.904;13.396;2022-11-18T16:46:13;17.60;;;10.27;;
13421;SDS011;6782;55.904;13.396;2022-11-18T16:48:40;7.53;;;5.40;;
13421;SDS011;6782;55.904;13.396;2022-11-18T16:51:17;7.10;;;5.00;;
13421;SDS011;6782;55.904;13.396;2022-11-18T16:53:48;5.87;;;4.03;;
13421;SDS011;6782;55.904;13.396;2022-11-18T16:56:16;5.23;;;3.97;;
13421;SDS011;6782;55.904;13.396;2022-11-18T16:58:44;8.43;;;6.97;;
13421;SDS011;6782;55.904;13.396;2022-11-18T17:01:11;9.03;;;7.47;;
13421;SDS011;6782;55.904;13.396;2022-11-18T17:03:38;9.43;;;6.33;;
13421;SDS011;6782;55.904;13.396;2022-11-18T17:06:06;12.57;;;10.63;;
13421;SDS011;6782;55.904;13.396;2022-11-18T17:08:34;10.00;;;8.30;;
13421;SDS011;6782;55.904;13.396;2022-11-18T17:11:05;7.13;;;6.17;;
13421;SDS011;6782;55.904;13.396;2022-11-18T17:13:33;9.37;;;6.60;;
13421;SDS011;6782;55.904;13.396;2022-11-18T17:16:06;11.50;;;8.77;;
13421;SDS011;6782;55.904;13.396;2022-11-18T17:18:35;5.03;;;4.47;;